Time;durP1;ratioP1;P1;durP2;ratioP2;P2;SDS_P1;SDS_P2;PMS_P1;PMS_P2;Temp;Humidity;BMP_temperature;BMP_pressure;BME280_temperature;BME280_humidity;BME280_pressure;Samples;Min_cycle;Max_cycle;Signal;HPM_P1;HPM_P2
2022/05/13 00:01:44;;;;;;;4.55;3.22;;;17.70;72.70;;;;;;5099176;28;20103;-74
2022/05/13 00:04:09;;;;;;;4.53;3.15;;;17.70;73.70;;;;;;5098999;28;20020;-73
2022/05/13 00:06:35;;;;;;;5.90;3.55;;;17.70;73.30;;;;;;5098486;28;20054;-74
2022/05/13 00:09:02;;;;;;;4.25;2.92;;;17.80;74.40;;;;;;5098798;28;20570;-74
2022/05/13 00:11:28;;;;;;;4.10;2.67;;;17.80;74.80;;;;;;5081844;28;20028;-75
2022/05/13 00:13:53;;;;;;;3.92;2.88;;;17.80;73.40;;;;;;5098575;28;20065;-75
2022/05/13 00:16:19;;;;;;;4.75;2.80;;;17.80;73.60;;;;;;5098592;28;20027;-75
2022/05/13 00:18:44;;;;;;;6.75;2.95;;;17.80;74.10;;;;;;5098803;28;20097;-75
2022/05/13 00:21:10;;;;;;;5.95;2.67;;;17.80;75.00;;;;;;5098788;28;20023;-80
2022/05/13 00:23:36;;;;;;;6.15;2.80;;;17.80;73.80;;;;;;5098694;28;20046;-82
2022/05/13 00:26:01;;;;;;;3.17;2.88;;;17.80;74.50;;;;;;5081379;28;20100;-74
2022/05/13 00:28:27;;;;;;;3.92;2.80;;;17.80;75.30;;;;;;5098571;28;20031;-75
2022/05/13 00:30:53;;;;;;;4.40;3.00;;;17.90;75.40;;;;;;5098734;28;20024;-77
2022/05/13 00:33:20;;;;;;;3.42;2.78;;;17.90;75.40;;;;;;5081627;28;20043;-74
2022/05/13 00:35:47;;;;;;;4.22;3.08;;;17.90;75.10;;;;;;5098548;28;20027;-83
2022/05/13 00:38:12;;;;;;;2.50;2.30;;;17.80;75.10;;;;;;5098532;28;20480;-73
2022/05/13 00:40:39;;;;;;;4.57;2.88;;;17.90;75.40;;;;;;5098525;28;20022;-74
2022/05/13 00:43:09;;;;;;;3.97;2.72;;;17.90;75.80;;;;;;5097776;28;20032;-81
2022/05/13 00:45:35;;;;;;;4.82;3.13;;;17.80;76.10;;;;;;5098420;28;20020;-75
2022/05/13 00:48:01;;;;;;;4.15;3.10;;;17.80;76.40;;;;;;5098191;28;20024;-77
2022/05/13 00:50:33;;;;;;;4.00;3.13;;;17.70;75.40;;;;;;5098292;28;20092;-74
2022/05/13 00:53:00;;;;;;;3.53;2.63;;;17.70;75.80;;;;;;5098131;28;20080;-75
2022/05/13 00:55:39;;;;;;;4.15;3.45;;;17.60;77.50;;;;;;5097860;28;20024;-74
2022/05/13 00:58:08;;;;;;;4.60;2.80;;;17.60;77.50;;;;;;5098734;28;20523;-74
2022/05/13 01:00:35;;;;;;;3.22;2.83;;;17.50;77.50;;;;;;5104991;28;20084;-74
2022/05/13 01:03:05;;;;;;;4.53;3.40;;;17.50;77.80;;;;;;5097807;28;20456;-73
2022/05/13 01:05:31;;;;;;;3.65;2.92;;;17.40;78.00;;;;;;5096849;28;20028;-74
2022/05/13 01:07:56;;;;;;;3.40;3.05;;;17.40;77.30;;;;;;5097210;28;20051;-76
2022/05/13 01:10:26;;;;;;;6.25;3.28;;;17.40;77.90;;;;;;5097723;28;20115;-76
2022/05/13 01:12:56;;;;;;;6.53;3.33;;;17.40;78.00;;;;;;5097332;28;20022;-75
2022/05/13 01:15:32;;;;;;;5.05;3.20;;;17.30;77.70;;;;;;5097791;28;20028;-74
2022/05/13 01:18:07;;;;;;;4.65;3.75;;;17.40;77.60;;;;;;5097676;28;20026;-75
2022/05/13 01:20:50;;;;;;;2.95;2.75;;;17.40;78.00;;;;;;5097869;28;20027;-75
2022/05/13 01:23:43;;;;;;;2.80;2.40;;;17.40;78.00;;;;;;5097731;28;20483;-77
2022/05/13 01:26:15;;;;;;;5.72;2.60;;;17.40;77.70;;;;;;5093999;28;20032;-77
2022/05/13 01:28:49;;;;;;;3.20;2.90;;;17.40;77.60;;;;;;5097539;28;20119;-76
2022/05/13 01:31:31;;;;;;;6.28;3.20;;;17.40;77.30;;;;;;5115727;28;20032;-80
2022/05/13 01:34:00;;;;;;;2.75;2.53;;;17.40;76.80;;;;;;5097421;28;20040;-75
2022/05/13 01:36:26;;;;;;;4.05;3.20;;;17.40;76.30;;;;;;5097202;28;20024;-75
2022/05/13 01:38:52;;;;;;;4.55;2.80;;;17.30;76.50;;;;;;5115530;28;20412;-78
2022/05/13 01:41:18;;;;;;;3.65;3.03;;;17.30;77.00;;;;;;5097175;28;20062;-78
2022/05/13 01:43:46;;;;;;;4.20;2.78;;;17.30;77.10;;;;;;5080896;28;20128;-80
2022/05/13 01:46:11;;;;;;;4.57;3.03;;;17.40;76.90;;;;;;5102957;28;20119;-75
2022/05/13 01:48:37;;;;;;;3.55;2.78;;;17.40;75.80;;;;;;5098303;28;20047;-80
2022/05/13 01:51:05;;;;;;;3.50;2.78;;;17.40;76.10;;;;;;5115312;28;20039;-80
2022/05/13 01:53:31;;;;;;;3.60;3.20;;;17.40;76.30;;;;;;5096705;28;20040;-77
2022/05/13 01:55:58;;;;;;;3.88;3.20;;;17.40;77.40;;;;;;5096760;28;20024;-77
2022/05/13 01:58:25;;;;;;;3.78;3.10;;;17.40;76.50;;;;;;5097310;28;20028;-76
2022/05/13 02:00:54;;;;;;;3.28;2.80;;;17.40;77.30;;;;;;5079998;28;20020;-76
2022/05/13 02:06:04;;;;;;;4.50;3.28;;;17.30;78.00;;;;;;5099729;28;20447;-74
2022/05/13 02:08:31;;;;;;;3.83;2.83;;;17.30;77.70;;;;;;5093036;28;20135;-75
2022/05/13 02:10:57;;;;;;;3.35;3.05;;;17.30;77.10;;;;;;5093108;28;20035;-82
2022/05/13 02:13:23;;;;;;;6.70;3.40;;;17.20;78.50;;;;;;5093150;28;20024;-76
2022/05/13 02:15:52;;;;;;;5.20;3.42;;;17.10;78.80;;;;;;5092241;28;20477;-75
2022/05/13 02:18:19;;;;;;;3.80;3.38;;;17.20;78.60;;;;;;5093155;28;20020;-77
2022/05/13 02:20:46;;;;;;;4.07;3.42;;;17.00;78.80;;;;;;5097175;28;20024;-75
2022/05/13 02:23:12;;;;;;;7.18;3.33;;;17.00;79.30;;;;;;5096230;28;20030;-80
2022/05/13 02:25:38;;;;;;;3.88;3.42;;;17.00;79.10;;;;;;5098567;28;20053;-75
2022/05/13 02:28:05;;;;;;;4.10;3.70;;;17.00;79.60;;;;;;5100866;28;20024;-78
2022/05/13 02:30:32;;;;;;;5.25;3.25;;;17.00;79.60;;;;;;5093095;28;20027;-77
2022/05/13 02:32:57;;;;;;;5.40;3.65;;;17.10;79.20;;;;;;5075762;28;20032;-76
2022/05/13 02:35:24;;;;;;;6.07;3.45;;;17.10;80.00;;;;;;5092820;28;20032;-74
2022/05/13 02:37:52;;;;;;;6.90;4.05;;;17.20;81.10;;;;;;5075604;28;20032;-74
2022/05/13 02:40:18;;;;;;;5.90;3.53;;;17.20;81.20;;;;;;5093385;28;20024;-76
2022/05/13 02:42:43;;;;;;;5.05;3.28;;;17.20;81.30;;;;;;5092337;28;20495;-74
2022/05/13 02:45:09;;;;;;;5.20;3.35;;;17.20;81.60;;;;;;5092506;28;20092;-74
2022/05/13 02:47:37;;;;;;;6.00;3.58;;;17.20;82.10;;;;;;5092379;28;20057;-75
2022/05/13 02:50:18;;;;;;;4.18;3.40;;;17.30;82.40;;;;;;5091982;28;20055;-74
2022/05/13 02:52:48;;;;;;;6.93;3.80;;;17.20;82.50;;;;;;5092902;28;20476;-74
2022/05/13 02:55:14;;;;;;;4.30;3.15;;;17.20;82.70;;;;;;5091721;28;20040;-74
2022/05/13 02:57:40;;;;;;;4.00;3.33;;;17.10;83.00;;;;;;5092340;28;20020;-73
2022/05/13 03:00:07;;;;;;;5.72;3.58;;;17.00;83.30;;;;;;5092293;28;20024;-74
2022/05/13 03:02:33;;;;;;;5.18;4.28;;;17.00;83.50;;;;;;5092241;28;20101;-74
2022/05/13 03:04:59;;;;;;;5.60;4.03;;;16.90;83.60;;;;;;5092291;28;20023;-74
2022/05/13 03:07:25;;;;;;;5.25;3.83;;;16.90;84.30;;;;;;5092204;28;20472;-73
2022/05/13 03:09:50;;;;;;;7.18;4.07;;;16.90;85.10;;;;;;5092530;28;20116;-74
2022/05/13 03:12:16;;;;;;;4.57;3.60;;;16.90;84.10;;;;;;5092012;28;20435;-74
2022/05/13 03:14:41;;;;;;;6.03;3.50;;;16.90;84.30;;;;;;5091936;28;20119;-74
2022/05/13 03:17:07;;;;;;;4.78;4.07;;;16.80;84.30;;;;;;5092042;28;20465;-74
2022/05/13 03:19:35;;;;;;;4.88;4.00;;;16.80;84.30;;;;;;5091804;28;20028;-74
2022/05/13 03:22:03;;;;;;;8.20;4.22;;;16.80;84.30;;;;;;5092600;28;20046;-74
2022/05/13 03:24:29;;;;;;;4.53;3.35;;;16.70;84.50;;;;;;5092268;28;20817;-74
2022/05/13 03:26:56;;;;;;;4.63;3.53;;;16.80;84.50;;;;;;5092730;28;20035;-74
2022/05/13 03:29:21;;;;;;;6.65;4.18;;;16.80;84.90;;;;;;5091712;28;20028;-74
2022/05/13 03:31:47;;;;;;;7.68;4.05;;;16.70;84.80;;;;;;5092055;28;20070;-75
2022/05/13 03:34:13;;;;;;;5.60;4.35;;;16.70;84.60;;;;;;5091806;28;20036;-74
2022/05/13 03:36:40;;;;;;;6.40;4.03;;;16.70;84.50;;;;;;5091958;28;20024;-74
2022/05/13 03:39:06;;;;;;;5.20;4.28;;;16.70;84.40;;;;;;5092018;28;20108;-74
2022/05/13 03:41:31;;;;;;;5.75;3.90;;;16.70;84.60;;;;;;5091930;28;20059;-74
2022/05/13 03:43:57;;;;;;;4.57;3.95;;;16.70;84.70;;;;;;5091580;28;20085;-79
2022/05/13 03:46:23;;;;;;;5.65;4.32;;;16.80;84.70;;;;;;5074698;28;20029;-75
2022/05/13 03:48:49;;;;;;;5.50;4.22;;;16.80;84.50;;;;;;5091627;28;20115;-74
2022/05/13 03:51:14;;;;;;;5.07;4.03;;;16.80;84.30;;;;;;5076722;28;20024;-75
2022/05/13 03:53:40;;;;;;;5.03;3.72;;;16.80;84.80;;;;;;5093097;28;20024;-77
2022/05/13 03:56:07;;;;;;;6.55;4.00;;;16.80;84.40;;;;;;5092161;28;20043;-75
2022/05/13 03:58:33;;;;;;;4.45;3.50;;;16.90;84.30;;;;;;5093948;28;20024;-74
2022/05/13 04:01:00;;;;;;;3.45;3.15;;;16.90;84.20;;;;;;5074926;28;20118;-74
2022/05/13 04:03:26;;;;;;;5.18;3.97;;;16.90;84.10;;;;;;5091597;28;20111;-74
2022/05/13 04:11:20;;;;;;;6.53;4.30;;;16.90;84.20;;;;;;5113322;28;20505;-74
2022/05/13 04:16:29;;;;;;;4.75;3.88;;;16.90;84.10;;;;;;5112872;28;20498;-74
2022/05/13 04:18:55;;;;;;;4.95;3.53;;;16.90;84.00;;;;;;5094174;28;20032;-74
2022/05/13 04:21:26;;;;;;;6.28;3.95;;;16.90;84.10;;;;;;5094863;28;20490;-74
2022/05/13 04:23:53;;;;;;;5.90;4.38;;;16.90;84.40;;;;;;5100110;28;20023;-81
2022/05/13 04:26:20;;;;;;;4.45;3.95;;;16.90;84.20;;;;;;5094950;28;20468;-73
2022/05/13 04:28:48;;;;;;;4.68;3.85;;;16.90;84.00;;;;;;5095077;28;20024;-82
2022/05/13 04:31:16;;;;;;;5.20;4.03;;;17.00;84.00;;;;;;5095128;28;20183;-75
2022/05/13 04:33:42;;;;;;;4.35;3.55;;;17.00;84.10;;;;;;5094732;28;20055;-77
2022/05/13 04:36:08;;;;;;;5.10;3.50;;;16.90;84.20;;;;;;5094971;28;20078;-74
2022/05/13 04:38:34;;;;;;;5.68;4.40;;;17.00;84.20;;;;;;5094598;28;20034;-76
2022/05/13 04:42:49;;;;;;;7.63;5.10;;;17.00;84.10;;;;;;5097854;28;20364;-73
2022/05/13 04:43:47;;;;;;;7.43;4.97;;;17.00;84.30;;;;;;5116109;28;20476;-74
2022/05/13 04:46:13;;;;;;;5.82;4.70;;;17.00;84.20;;;;;;5098268;28;20032;-74
2022/05/13 04:48:38;;;;;;;4.80;4.30;;;17.00;84.40;;;;;;5098032;28;20110;-73
2022/05/13 04:51:04;;;;;;;6.15;4.57;;;17.10;84.30;;;;;;5097384;28;20110;-77
2022/05/13 04:53:36;;;;;;;5.75;4.20;;;17.10;83.70;;;;;;5097963;28;20051;-74
2022/05/13 04:56:04;;;;;;;5.88;4.30;;;17.20;83.50;;;;;;5098072;28;20430;-74
2022/05/13 04:58:30;;;;;;;5.10;4.22;;;17.20;83.40;;;;;;5097982;28;20030;-73
2022/05/13 05:00:59;;;;;;;4.63;3.97;;;17.20;83.30;;;;;;5115947;28;20145;-74
2022/05/13 05:03:29;;;;;;;10.57;4.50;;;17.30;83.20;;;;;;5098196;28;20135;-74
2022/05/13 05:05:56;;;;;;;5.18;4.63;;;17.30;83.20;;;;;;5097920;28;20022;-77
2022/05/13 05:08:23;;;;;;;4.65;4.15;;;17.40;83.20;;;;;;5097298;28;20495;-79
2022/05/13 05:10:49;;;;;;;4.47;3.95;;;17.40;82.80;;;;;;5115949;28;20537;-76
2022/05/13 05:13:21;;;;;;;3.85;3.40;;;17.50;82.90;;;;;;5116100;28;20107;-74
2022/05/13 05:15:46;;;;;;;5.63;4.45;;;17.50;82.80;;;;;;5098272;28;20038;-73
2022/05/13 05:18:13;;;;;;;6.47;4.78;;;17.60;82.70;;;;;;5100093;28;20044;-75
2022/05/13 05:20:39;;;;;;;4.97;4.00;;;17.60;82.70;;;;;;5099347;28;20484;-73
2022/05/13 05:23:05;;;;;;;5.47;4.53;;;17.70;83.50;;;;;;5100492;28;20459;-81
2022/05/13 05:25:31;;;;;;;6.60;4.97;;;17.70;82.70;;;;;;5099405;28;20027;-74
2022/05/13 05:28:00;;;;;;;5.00;4.47;;;17.70;82.90;;;;;;5096390;28;20024;-74
2022/05/13 05:30:25;;;;;;;9.00;4.57;;;17.80;82.60;;;;;;5096729;28;20028;-77
2022/05/13 05:32:52;;;;;;;7.93;5.18;;;17.80;82.10;;;;;;5115155;28;20027;-76
2022/05/13 05:35:21;;;;;;;7.93;4.70;;;17.80;82.00;;;;;;5096951;28;20070;-75
2022/05/13 05:37:49;;;;;;;6.05;5.05;;;17.80;82.20;;;;;;5097335;28;20019;-76
2022/05/13 05:40:14;;;;;;;8.90;5.32;;;17.80;82.30;;;;;;5097330;28;20383;-74
2022/05/13 05:42:41;;;;;;;6.20;4.95;;;17.80;82.40;;;;;;5096358;28;20138;-74
2022/05/13 05:45:09;;;;;;;6.18;4.75;;;17.90;82.20;;;;;;5079757;28;20034;-75
2022/05/13 05:47:36;;;;;;;8.00;5.70;;;17.80;82.00;;;;;;5079996;28;20031;-80
2022/05/13 05:50:06;;;;;;;5.40;4.85;;;17.90;82.30;;;;;;5096438;28;20472;-74
2022/05/13 05:52:32;;;;;;;7.30;5.35;;;17.90;82.50;;;;;;5079904;28;20023;-73
2022/05/13 05:58:00;;;;;;;7.05;6.03;;;17.90;82.60;;;;;;5114485;28;20069;-73
2022/05/13 06:00:28;;;;;;;6.22;5.47;;;17.90;82.80;;;;;;5096369;28;20027;-73
2022/05/13 06:02:55;;;;;;;6.07;5.22;;;17.90;83.10;;;;;;5098149;28;20384;-73
2022/05/13 06:05:23;;;;;;;7.63;5.32;;;17.90;83.50;;;;;;5079277;28;20016;-76
2022/05/13 06:07:50;;;;;;;10.63;6.63;;;17.80;83.40;;;;;;5079234;28;20068;-74
2022/05/13 06:10:16;;;;;;;9.93;5.97;;;17.80;84.00;;;;;;5095648;28;20092;-79
2022/05/13 06:12:42;;;;;;;6.22;5.10;;;17.70;82.10;;;;;;5096155;28;20024;-78
2022/05/13 06:15:09;;;;;;;12.05;6.57;;;17.80;82.40;;;;;;5096093;28;20035;-74
2022/05/13 06:17:34;;;;;;;10.30;6.35;;;17.80;81.40;;;;;;5095595;28;20016;-73
2022/05/13 06:20:05;;;;;;;9.45;6.07;;;17.80;81.60;;;;;;5095859;28;20373;-73
2022/05/13 06:22:31;;;;;;;10.88;5.65;;;17.90;81.40;;;;;;5095941;28;20028;-74
2022/05/13 06:24:56;;;;;;;11.05;6.40;;;17.90;80.50;;;;;;5095549;28;20035;-73
2022/05/13 06:27:23;;;;;;;10.52;5.55;;;18.00;79.80;;;;;;5095974;28;20072;-73
2022/05/13 06:29:51;;;;;;;10.38;5.50;;;18.00;80.00;;;;;;5095959;28;20023;-76
2022/05/13 06:32:17;;;;;;;7.97;4.97;;;18.10;79.90;;;;;;5114265;28;20039;-73
2022/05/13 06:34:43;;;;;;;9.65;5.45;;;18.20;79.00;;;;;;5113918;28;20060;-79
2022/05/13 06:37:09;;;;;;;9.48;4.80;;;18.20;79.00;;;;;;5095495;28;20114;-73
2022/05/13 06:39:34;;;;;;;9.40;5.40;;;18.20;78.80;;;;;;5096141;28;20468;-75
2022/05/13 06:42:00;;;;;;;7.53;5.63;;;18.30;79.20;;;;;;5095911;28;20108;-73
2022/05/13 06:44:26;;;;;;;7.22;5.35;;;18.40;80.00;;;;;;5095727;28;20125;-75
2022/05/13 06:46:53;;;;;;;13.43;5.30;;;18.50;80.20;;;;;;5097290;28;20027;-74
2022/05/13 06:49:19;;;;;;;9.45;4.85;;;18.50;78.90;;;;;;5096211;28;20023;-75
2022/05/13 06:51:45;;;;;;;7.97;4.75;;;18.60;77.20;;;;;;5117720;28;20015;-74
2022/05/13 06:54:11;;;;;;;8.30;4.93;;;18.60;76.40;;;;;;5095687;28;20027;-75
2022/05/13 06:56:41;;;;;;;7.70;4.40;;;18.60;76.30;;;;;;5097546;28;20095;-75
2022/05/13 06:59:08;;;;;;;5.95;4.10;;;18.60;76.70;;;;;;5079856;28;20023;-77
2022/05/13 07:01:34;;;;;;;9.30;5.05;;;18.70;77.80;;;;;;5095090;28;20024;-74
2022/05/13 07:04:00;;;;;;;8.35;5.50;;;18.70;78.30;;;;;;5094967;28;20024;-74
2022/05/13 07:06:26;;;;;;;9.73;5.50;;;18.70;79.00;;;;;;5095673;28;20521;-74
2022/05/13 07:08:51;;;;;;;8.63;4.97;;;18.70;79.80;;;;;;5095333;28;20048;-76
2022/05/13 07:11:18;;;;;;;12.07;5.78;;;18.70;79.50;;;;;;5095388;28;20415;-77
2022/05/13 07:13:44;;;;;;;10.77;6.28;;;18.60;79.50;;;;;;5079977;28;20176;-75
2022/05/13 07:16:09;;;;;;;12.30;5.68;;;18.20;81.30;;;;;;5098299;28;20065;-76
2022/05/13 07:18:36;;;;;;;10.45;5.55;;;17.80;80.10;;;;;;5096583;28;20114;-75
2022/05/13 07:21:02;;;;;;;5.75;4.85;;;17.40;81.10;;;;;;5094859;28;20106;-76
2022/05/13 07:23:29;;;;;;;4.75;4.25;;;17.10;82.60;;;;;;5094494;28;20031;-77
2022/05/13 07:25:57;;;;;;;7.53;4.53;;;16.70;83.70;;;;;;5094827;28;20035;-75
2022/05/13 07:28:23;;;;;;;8.07;4.55;;;16.40;85.40;;;;;;5095458;28;20024;-79
2022/05/13 07:30:49;;;;;;;9.13;4.30;;;16.10;85.50;;;;;;5095595;28;20089;-77
2022/05/13 07:33:15;;;;;;;7.80;4.18;;;16.00;86.00;;;;;;5094442;28;20475;-77
2022/05/13 07:35:40;;;;;;;7.97;4.05;;;15.80;86.00;;;;;;5095168;28;20040;-77
2022/05/13 07:38:07;;;;;;;11.68;5.32;;;15.80;86.50;;;;;;5094702;28;20371;-77
2022/05/13 07:43:20;;;;;;;16.13;5.22;;;15.80;87.60;;;;;;5113850;28;20031;-79
2022/05/13 07:45:45;;;;;;;10.10;4.65;;;16.00;88.50;;;;;;5113927;28;20441;-76
2022/05/13 07:48:11;;;;;;;13.00;4.65;;;16.20;88.20;;;;;;5095164;28;20020;-77
2022/05/13 07:50:37;;;;;;;9.80;4.28;;;16.50;87.10;;;;;;5113530;28;20024;-80
2022/05/13 07:53:03;;;;;;;7.97;4.53;;;16.80;85.90;;;;;;5095033;28;20099;-77
2022/05/13 07:55:29;;;;;;;10.77;4.10;;;17.00;83.80;;;;;;5095078;28;20085;-76
2022/05/13 07:57:54;;;;;;;11.15;3.72;;;17.00;83.50;;;;;;5095109;28;20096;-75
2022/05/13 08:00:25;;;;;;;7.22;4.35;;;17.10;82.80;;;;;;5094474;28;20046;-78
2022/05/13 08:03:05;;;;;;;8.10;4.00;;;16.90;82.90;;;;;;5094758;28;20387;-78
2022/05/13 08:05:40;;;;;;;7.18;4.15;;;16.80;84.10;;;;;;5092308;28;20381;-76
2022/05/13 08:08:09;;;;;;;5.07;3.28;;;16.90;83.00;;;;;;5094607;28;20491;-77
2022/05/13 08:10:38;;;;;;;7.57;3.03;;;17.00;83.00;;;;;;5113003;28;20058;-81
2022/05/13 08:13:04;;;;;;;8.15;3.75;;;16.90;82.30;;;;;;5078095;28;20034;-76
2022/05/13 08:15:30;;;;;;;6.65;3.47;;;16.90;82.60;;;;;;5098335;28;20035;-75
2022/05/13 08:17:56;;;;;;;7.97;3.63;;;17.00;81.70;;;;;;5098681;28;20111;-75
2022/05/13 08:20:23;;;;;;;6.50;3.67;;;16.90;80.80;;;;;;5098455;28;20467;-75
2022/05/13 08:22:48;;;;;;;7.70;3.40;;;17.00;81.30;;;;;;5098300;28;20026;-75
2022/05/13 08:25:14;;;;;;;10.10;3.10;;;17.00;80.00;;;;;;5098903;28;20110;-78
2022/05/13 08:27:40;;;;;;;7.43;3.35;;;17.10;80.30;;;;;;5098889;28;20475;-82
2022/05/13 08:30:09;;;;;;;6.70;2.95;;;17.20;79.60;;;;;;5098990;28;20020;-77
2022/05/13 08:32:35;;;;;;;9.40;3.20;;;17.30;79.10;;;;;;5098853;28;20088;-81
2022/05/13 08:35:00;;;;;;;8.52;3.08;;;17.50;78.50;;;;;;5099402;28;20467;-75
2022/05/13 08:37:26;;;;;;;5.07;3.08;;;17.50;78.30;;;;;;5101436;28;20016;-75
2022/05/13 08:39:51;;;;;;;8.55;3.90;;;17.40;78.20;;;;;;5100879;28;20020;-75
2022/05/13 08:42:35;;;;;;;6.72;3.25;;;17.40;78.50;;;;;;5099174;28;20058;-79
2022/05/13 08:45:07;;;;;;;7.57;3.88;;;17.40;78.60;;;;;;5098983;28;20024;-78
2022/05/13 08:47:55;;;;;;;6.20;2.70;;;17.40;77.80;;;;;;5098444;28;20073;-79
2022/05/13 08:50:38;;;;;;;6.22;2.95;;;17.30;78.30;;;;;;5098154;28;20106;-78
2022/05/13 08:53:16;;;;;;;5.18;2.90;;;17.30;78.50;;;;;;5097656;28;20031;-78
2022/05/13 08:55:48;;;;;;;7.18;3.17;;;17.20;78.40;;;;;;5098073;28;20031;-79
2022/05/13 08:58:29;;;;;;;9.75;3.53;;;17.10;78.40;;;;;;5080776;28;20035;-78
2022/05/13 09:00:58;;;;;;;6.35;3.63;;;17.10;79.10;;;;;;5097259;28;20059;-78
2022/05/13 09:03:30;;;;;;;8.82;4.00;;;16.80;79.30;;;;;;5097107;28;20031;-78
2022/05/13 09:06:18;;;;;;;9.23;4.43;;;16.70;80.30;;;;;;5097354;28;20054;-79
2022/05/13 09:08:44;;;;;;;7.72;3.67;;;16.80;80.30;;;;;;5115521;28;20039;-79
2022/05/13 09:11:27;;;;;;;7.43;3.72;;;16.80;80.40;;;;;;5080559;28;20457;-79
2022/05/13 09:14:02;;;;;;;8.32;3.67;;;16.80;79.40;;;;;;5097182;28;20042;-79
2022/05/13 09:17:06;;;;;;;8.10;4.23;;;17.00;79.10;;;;;;5097589;28;20463;-79
2022/05/13 09:19:36;;;;;;;7.90;3.30;;;17.30;78.80;;;;;;5115547;28;20412;-79
2022/05/13 09:22:06;;;;;;;10.35;3.35;;;17.30;78.10;;;;;;5115452;28;20024;-78
2022/05/13 09:24:31;;;;;;;8.63;3.35;;;17.10;77.30;;;;;;5096593;28;20377;-78
2022/05/13 09:26:57;;;;;;;5.93;3.03;;;17.10;77.30;;;;;;5097157;28;20012;-78
2022/05/13 09:29:22;;;;;;;5.07;2.83;;;17.20;77.20;;;;;;5097309;28;20024;-78
2022/05/13 09:31:54;;;;;;;5.95;3.10;;;17.30;77.00;;;;;;5096951;28;20023;-78
2022/05/13 09:34:42;;;;;;;6.03;3.08;;;17.40;76.80;;;;;;5097783;28;20503;-78
2022/05/13 09:37:12;;;;;;;6.13;2.92;;;17.50;75.80;;;;;;5097301;28;20028;-78
2022/05/13 09:39:43;;;;;;;6.72;3.45;;;17.60;75.20;;;;;;5097065;28;20023;-79
2022/05/13 09:42:19;;;;;;;5.60;3.28;;;17.80;74.50;;;;;;5097210;28;20031;-78
2022/05/13 09:44:46;;;;;;;4.97;2.72;;;17.90;74.50;;;;;;5097219;28;20027;-79
2022/05/13 09:47:26;;;;;;;9.23;3.90;;;18.00;74.60;;;;;;5097471;28;20023;-77
2022/05/13 09:49:52;;;;;;;8.88;3.58;;;18.10;74.90;;;;;;5097444;28;20020;-79
2022/05/13 09:52:36;;;;;;;8.65;4.05;;;18.00;74.70;;;;;;5096882;28;20484;-78
2022/05/13 09:55:24;;;;;;;9.48;3.60;;;18.10;73.00;;;;;;5100164;28;20093;-78
2022/05/13 09:57:52;;;;;;;10.85;3.90;;;18.00;74.60;;;;;;5094840;28;20039;-78
2022/05/13 10:00:29;;;;;;;8.40;3.53;;;17.70;74.00;;;;;;5099179;28;20111;-78
2022/05/13 10:03:18;;;;;;;9.40;3.70;;;17.70;73.30;;;;;;5097089;28;20019;-77
2022/05/13 10:05:51;;;;;;;6.57;3.17;;;17.90;73.10;;;;;;5096160;28;20148;-78
2022/05/13 10:08:23;;;;;;;12.68;3.80;;;18.10;74.10;;;;;;5095578;28;20047;-78
2022/05/13 10:14:03;;;;;;;10.10;3.10;;;18.80;70.90;;;;;;5115057;28;20046;-78
2022/05/13 10:16:45;;;;;;;10.40;3.22;;;19.10;69.50;;;;;;5114805;28;20066;-78
2022/05/13 10:19:23;;;;;;;14.82;2.97;;;18.70;66.70;;;;;;5096199;28;20028;-78
2022/05/13 10:22:10;;;;;;;10.07;3.00;;;18.60;67.40;;;;;;5096024;28;20032;-78
2022/05/13 10:24:50;;;;;;;15.65;4.72;;;18.80;68.20;;;;;;5095681;28;20379;-79
2022/05/13 10:27:53;;;;;;;10.63;3.80;;;18.40;68.70;;;;;;5096222;28;20027;-77
2022/05/13 10:30:26;;;;;;;10.73;3.53;;;17.70;71.20;;;;;;5101115;28;20547;-77
2022/05/13 10:33:00;;;;;;;14.07;4.22;;;17.60;70.30;;;;;;5095537;28;20468;-75
2022/05/13 10:35:32;;;;;;;8.90;3.42;;;17.50;69.80;;;;;;5095952;28;20035;-76
2022/05/13 10:38:08;;;;;;;11.48;3.53;;;17.50;71.80;;;;;;5094684;28;20020;-77
2022/05/13 10:40:43;;;;;;;11.35;2.90;;;17.60;70.40;;;;;;5095161;28;20144;-81
2022/05/13 10:43:32;;;;;;;11.63;3.50;;;17.50;70.80;;;;;;5113561;28;20042;-80
2022/05/13 10:49:07;;;;;;;19.02;4.95;;;17.50;70.70;;;;;;5170799;22;20075;-80
2022/05/13 10:52:05;;;;;;;10.48;3.20;;;17.80;70.30;;;;;;5091395;28;20027;-80
2022/05/13 10:54:43;;;;;;;11.65;3.50;;;18.00;70.90;;;;;;5087501;28;20134;-81
2022/05/13 10:57:20;;;;;;;10.75;3.53;;;18.20;69.50;;;;;;5092070;28;20349;-80
2022/05/13 11:00:00;;;;;;;16.42;4.45;;;18.00;70.20;;;;;;5091236;28;20117;-77
2022/05/13 11:02:35;;;;;;;8.30;3.67;;;18.00;71.00;;;;;;5091798;28;20104;-79
2022/05/13 11:05:03;;;;;;;10.65;3.20;;;18.10;70.50;;;;;;5091617;28;20081;-79
2022/05/13 11:07:33;;;;;;;13.80;3.75;;;18.10;70.10;;;;;;5091541;28;20020;-78
2022/05/13 11:10:20;;;;;;;10.23;3.72;;;17.90;69.60;;;;;;5091609;28;20024;-78
2022/05/13 11:12:57;;;;;;;8.27;3.28;;;17.90;70.90;;;;;;5091813;28;20027;-79
2022/05/13 11:15:36;;;;;;;12.18;3.53;;;18.00;70.70;;;;;;5091441;28;20595;-78
2022/05/13 11:18:15;;;;;;;11.55;3.00;;;18.20;70.00;;;;;;5064249;28;20028;-76
2022/05/13 11:20:55;;;;;;;10.73;3.42;;;18.40;68.50;;;;;;5070566;28;20036;-79
2022/05/13 11:23:30;;;;;;;6.75;2.63;;;18.20;67.40;;;;;;5071905;28;20066;-77
2022/05/13 11:26:35;;;;;;;6.60;3.28;;;18.30;66.80;;;;;;5071287;28;20075;-78
2022/05/13 11:29:07;;;;;;;11.48;3.70;;;18.60;66.00;;;;;;5071610;28;20082;-80
2022/05/13 11:31:51;;;;;;;10.80;3.60;;;18.80;66.30;;;;;;5071460;28;20487;-79
2022/05/13 11:34:54;;;;;;;11.18;3.63;;;18.90;66.60;;;;;;5070635;28;20043;-79
2022/05/13 11:37:21;;;;;;;9.70;3.45;;;19.10;65.40;;;;;;5071642;28;20035;-77
2022/05/13 11:40:15;;;;;;;7.22;2.90;;;19.00;67.20;;;;;;5071181;28;20491;-76
2022/05/13 11:46:08;;;;;;;11.32;4.20;;;19.20;66.60;;;;;;5072709;28;20098;-79
2022/05/13 11:48:46;;;;;;;9.13;3.08;;;19.10;67.00;;;;;;5073602;28;20056;-76
2022/05/13 11:51:31;;;;;;;9.23;3.50;;;19.10;68.90;;;;;;5075439;28;20025;-75
2022/05/13 11:54:00;;;;;;;8.70;2.95;;;19.40;68.00;;;;;;5075481;28;20032;-76
2022/05/13 11:56:32;;;;;;;11.50;3.38;;;19.80;68.80;;;;;;5075036;28;20025;-75
2022/05/13 11:59:41;;;;;;;7.28;3.08;;;20.30;65.50;;;;;;5076429;28;20025;-74
2022/05/13 12:02:12;;;;;;;8.40;2.70;;;20.90;64.30;;;;;;5022534;28;20033;-74
2022/05/13 12:05:16;;;;;;;11.13;3.88;;;21.40;61.80;;;;;;5074996;28;20082;-75
2022/05/13 12:07:53;;;;;;;12.43;3.20;;;21.70;59.20;;;;;;5092016;28;20020;-75
2022/05/13 12:10:34;;;;;;;8.88;3.10;;;22.00;59.40;;;;;;5090285;28;20025;-76
2022/05/13 12:13:28;;;;;;;9.00;3.10;;;22.30;59.30;;;;;;5086336;28;20016;-76
2022/05/13 12:16:25;;;;;;;8.75;2.85;;;22.30;58.90;;;;;;5080564;28;20032;-76
2022/05/13 12:19:20;;;;;;;9.32;3.25;;;22.20;58.40;;;;;;5122426;22;20041;-75
2022/05/13 12:22:26;;;;;;;13.43;3.23;;;22.30;58.30;;;;;;5075007;28;20037;-77
2022/05/13 12:24:53;;;;;;;;;;;22.50;55.70;;;;;;5082001;28;20035;-75
2022/05/13 12:27:29;;;;;;;8.98;3.25;;;22.50;55.40;;;;;;5084776;28;19999;-75
2022/05/13 12:30:04;;;;;;;9.93;3.55;;;22.70;55.90;;;;;;5076673;28;20115;-75
2022/05/13 12:32:48;;;;;;;5.30;2.80;;;22.60;55.50;;;;;;5096147;28;20534;-74
2022/05/13 12:38:23;;;;;;;5.82;3.20;;;22.50;55.90;;;;;;5095923;28;20445;-75
2022/05/13 12:40:59;;;;;;;8.00;2.78;;;22.10;55.50;;;;;;5077395;28;20028;-74
2022/05/13 12:43:45;;;;;;;11.40;3.97;;;21.60;57.90;;;;;;5095459;28;20020;-75
2022/05/13 12:46:18;;;;;;;8.10;3.47;;;21.30;57.80;;;;;;5077398;28;20119;-77
2022/05/13 12:49:03;;;;;;;4.97;2.67;;;21.10;58.30;;;;;;5076544;28;20440;-75
2022/05/13 12:51:40;;;;;;;9.75;3.80;;;21.10;60.00;;;;;;5077202;28;20095;-75
2022/05/13 12:54:09;;;;;;;7.70;3.25;;;21.00;58.80;;;;;;5094918;28;20408;-75
2022/05/13 12:56:42;;;;;;;8.23;3.38;;;21.10;59.50;;;;;;5076551;28;20020;-75
2022/05/13 12:59:16;;;;;;;11.27;3.92;;;21.10;59.50;;;;;;5077462;28;20366;-74
2022/05/13 13:01:48;;;;;;;12.43;4.65;;;21.40;59.30;;;;;;5076956;28;20476;-74
2022/05/13 13:04:17;;;;;;;9.85;2.95;;;21.70;56.80;;;;;;5077332;28;20039;-76
2022/05/13 13:06:46;;;;;;;8.40;3.63;;;21.90;57.10;;;;;;5095223;28;20027;-74
2022/05/13 13:09:34;;;;;;;8.18;3.60;;;22.20;55.20;;;;;;5077503;28;20134;-75
2022/05/13 13:12:06;;;;;;;10.40;3.28;;;22.60;53.30;;;;;;5076955;28;20198;-75
2022/05/13 13:14:38;;;;;;;10.63;3.53;;;22.50;53.30;;;;;;5077738;28;20032;-78
2022/05/13 13:17:11;;;;;;;8.65;4.15;;;22.50;53.10;;;;;;5077046;28;20035;-76
2022/05/13 13:19:36;;;;;;;8.70;3.47;;;22.50;52.30;;;;;;5094804;28;20127;-74
2022/05/13 13:22:10;;;;;;;7.85;3.75;;;22.50;51.50;;;;;;5094763;28;20070;-75
2022/05/13 13:24:38;;;;;;;10.73;3.92;;;22.20;52.70;;;;;;5076932;28;20041;-75
2022/05/13 13:27:12;;;;;;;17.08;5.78;;;22.10;53.70;;;;;;5094907;28;20190;-75
2022/05/13 13:29:41;;;;;;;30.52;10.35;;;22.50;51.50;;;;;;5076915;28;20111;-75
2022/05/13 13:32:14;;;;;;;10.98;4.03;;;22.30;52.80;;;;;;5077170;28;20024;-75
2022/05/13 13:34:50;;;;;;;8.88;4.03;;;22.30;52.90;;;;;;5076531;28;20246;-75